createdAt,value
2023-05-21T00:00:41.650Z,48.59
2023-05-21T00:03:16.326Z,48.89
2023-05-21T00:05:47.307Z,49.25
2023-05-21T00:08:15.552Z,49.12
2023-05-21T00:10:43.623Z,49.42
2023-05-21T00:13:11.727Z,48.98
2023-05-21T00:15:40.033Z,49.27
2023-05-21T00:18:08.246Z,49.37
2023-05-21T00:20:37.243Z,49.13
2023-05-21T00:23:06.722Z,49.47
2023-05-21T00:25:35.277Z,49.12
2023-05-21T00:28:03.883Z,49.29
2023-05-21T00:30:31.991Z,49.52
2023-05-21T00:33:02.757Z,49.57
2023-05-21T00:35:31.377Z,50.34
2023-05-21T00:38:00.405Z,50.39
2023-05-21T00:40:29.925Z,50.65
2023-05-21T00:42:58.280Z,50.60
2023-05-21T00:45:26.387Z,50.16
2023-05-21T00:47:55.812Z,50.05
2023-05-21T00:50:24.357Z,50.23
2023-05-21T00:52:52.632Z,50.08
2023-05-21T00:55:20.958Z,50.37
2023-05-21T00:57:50.738Z,50.12
2023-05-21T01:00:18.965Z,50.20
2023-05-21T01:02:47.683Z,50.56
2023-05-21T01:05:16.378Z,50.88
2023-05-21T01:07:44.646Z,50.76
2023-05-21T01:10:13.417Z,50.89
2023-05-21T01:12:44.898Z,51.36
2023-05-21T01:15:15.173Z,51.75
2023-05-21T01:17:46.145Z,51.58
2023-05-21T01:20:18.318Z,51.96
2023-05-21T01:22:56.622Z,52.35
2023-05-21T01:25:25.124Z,51.89
2023-05-21T01:27:53.685Z,52.43
2023-05-21T01:30:23.534Z,52.64
2023-05-21T01:33:00.925Z,52.42
2023-05-21T01:35:33.338Z,52.41
2023-05-21T01:38:09.779Z,52.34
2023-05-21T01:40:43.284Z,53.21
2023-05-21T01:43:12.769Z,53.20
2023-05-21T01:45:43.365Z,53.34
2023-05-21T01:48:13.419Z,53.15
2023-05-21T01:50:42.992Z,53.01
2023-05-21T01:53:12.609Z,53.30
2023-05-21T01:55:42.239Z,53.42
2023-05-21T01:58:10.654Z,53.69
2023-05-21T02:00:40.116Z,53.43
2023-05-21T02:03:08.935Z,53.63
2023-05-21T02:05:37.561Z,53.78
2023-05-21T02:08:08.499Z,53.82
2023-05-21T02:10:38.419Z,53.66
2023-05-21T02:13:06.581Z,53.75
2023-05-21T02:15:35.589Z,53.77
2023-05-21T02:18:04.499Z,53.84
2023-05-21T02:20:33.177Z,53.98
2023-05-21T02:23:01.340Z,53.95
2023-05-21T02:25:29.543Z,53.47
2023-05-21T02:27:59.605Z,53.40
2023-05-21T02:30:28.075Z,53.79
2023-05-21T02:32:59.017Z,53.52
2023-05-21T02:35:27.280Z,53.56
2023-05-21T02:37:59.046Z,53.08
2023-05-21T02:40:27.208Z,53.27
2023-05-21T02:42:55.319Z,53.17
2023-05-21T02:45:24.968Z,52.83
2023-05-21T02:47:53.079Z,53.33
2023-05-21T02:50:22.859Z,52.93
2023-05-21T02:52:51.079Z,52.79
2023-05-21T02:55:19.207Z,52.84
2023-05-21T02:57:47.315Z,52.97
2023-05-21T03:00:16.453Z,53.05
2023-05-21T03:02:46.249Z,53.01
2023-05-21T03:05:14.400Z,53.11
2023-05-21T03:07:43.705Z,53.17
2023-05-21T03:10:12.237Z,53.32
2023-05-21T03:12:40.337Z,53.19
2023-05-21T03:15:09.343Z,53.40
2023-05-21T03:17:37.502Z,53.70
2023-05-21T03:20:09.038Z,53.69
2023-05-21T03:22:37.679Z,53.70
2023-05-21T03:25:06.224Z,53.67
2023-05-21T03:27:34.278Z,54.22
2023-05-21T03:30:02.383Z,53.91
2023-05-21T03:32:30.628Z,53.78
2023-05-21T03:34:58.707Z,54.14
2023-05-21T03:37:28.182Z,53.41
2023-05-21T03:39:56.257Z,53.40
2023-05-21T03:42:24.332Z,53.62
2023-05-21T03:44:52.349Z,53.73
2023-05-21T03:47:20.407Z,53.73
2023-05-21T03:49:48.552Z,53.88
2023-05-21T03:52:16.576Z,53.66
2023-05-21T03:54:46.087Z,53.58
2023-05-21T03:57:14.235Z,53.91
2023-05-21T03:59:42.280Z,53.78
2023-05-21T04:02:10.383Z,53.81
2023-05-21T04:04:38.597Z,53.31
2023-05-21T04:07:10.426Z,53.49
2023-05-21T04:09:38.468Z,54.10
2023-05-21T04:12:08.637Z,53.91
2023-05-21T04:14:37.876Z,54.30
2023-05-21T04:17:06.695Z,54.12
2023-05-21T04:19:34.920Z,54.48
2023-05-21T04:22:03.223Z,54.27
2023-05-21T04:24:31.292Z,54.31
2023-05-21T04:27:01.479Z,54.26
2023-05-21T04:29:31.402Z,54.31
2023-05-21T04:31:59.483Z,54.28
2023-05-21T04:34:27.562Z,54.45
2023-05-21T04:36:57.005Z,54.12
2023-05-21T04:39:25.026Z,54.83
2023-05-21T04:41:54.776Z,54.43
2023-05-21T04:44:22.898Z,54.63
2023-05-21T04:46:52.842Z,55.03
2023-05-21T04:49:22.349Z,55.07
2023-05-21T04:51:53.168Z,55.13
2023-05-21T04:54:21.207Z,55.15
2023-05-21T04:56:49.408Z,54.70
2023-05-21T04:59:18.739Z,54.92
2023-05-21T05:01:46.995Z,55.04
2023-05-21T05:04:16.473Z,55.06
2023-05-21T05:06:44.721Z,54.84
2023-05-21T05:09:13.008Z,54.55
2023-05-21T05:11:41.052Z,54.64
2023-05-21T05:14:09.307Z,54.46
2023-05-21T05:16:37.437Z,54.41
2023-05-21T05:19:05.628Z,54.47
2023-05-21T05:21:35.198Z,54.04
2023-05-21T05:24:03.349Z,54.27
2023-05-21T05:26:31.490Z,53.65
2023-05-21T05:28:59.571Z,53.95
2023-05-21T05:31:27.586Z,53.54
2023-05-21T05:33:55.724Z,52.97
2023-05-21T05:36:24.272Z,53.18
2023-05-21T05:38:53.758Z,52.51
2023-05-21T05:41:21.892Z,51.56
2023-05-21T05:43:49.911Z,52.01
2023-05-21T05:46:18.011Z,51.97
2023-05-21T05:48:46.217Z,51.42
2023-05-21T05:51:15.459Z,51.08
2023-05-21T05:53:43.581Z,50.26
2023-05-21T05:56:13.103Z,49.55
2023-05-21T05:58:41.230Z,48.49
2023-05-21T06:01:09.315Z,47.62
2023-05-21T06:03:37.413Z,46.66
2023-05-21T06:06:05.616Z,45.26
2023-05-21T06:08:37.303Z,44.50
2023-05-21T06:11:06.329Z,43.52
2023-05-21T06:13:35.787Z,43.27
2023-05-21T06:16:05.109Z,42.93
2023-05-21T06:18:33.231Z,42.49
2023-05-21T06:21:01.654Z,42.14
2023-05-21T06:23:29.744Z,42.08
2023-05-21T06:25:57.880Z,41.20
2023-05-21T06:28:25.964Z,40.49
2023-05-21T06:30:55.492Z,39.87
2023-05-21T06:33:23.733Z,39.27
2023-05-21T06:35:51.943Z,39.44
2023-05-21T06:38:20.136Z,39.46
2023-05-21T06:40:49.531Z,39.04
2023-05-21T06:43:17.634Z,38.01
2023-05-21T06:45:45.692Z,36.55
2023-05-21T06:48:16.042Z,35.82
2023-05-21T06:50:44.502Z,34.36
2023-05-21T06:53:14.014Z,33.66
2023-05-21T06:55:44.975Z,32.35
2023-05-21T06:58:13.267Z,31.20
2023-05-21T07:00:41.397Z,30.79
2023-05-21T07:03:09.594Z,29.65
2023-05-21T07:05:39.522Z,28.97
2023-05-21T07:08:08.585Z,28.60
2023-05-21T07:10:37.257Z,27.74
2023-05-21T07:13:05.392Z,27.71
2023-05-21T07:15:33.630Z,27.02
2023-05-21T07:18:01.729Z,26.64
2023-05-21T07:20:29.961Z,26.17
2023-05-21T07:22:59.527Z,25.96
2023-05-21T07:25:27.747Z,25.33
2023-05-21T07:27:56.019Z,24.68
2023-05-21T07:30:24.166Z,23.57
2023-05-21T07:32:52.371Z,22.94
2023-05-21T07:35:21.172Z,22.50
2023-05-21T07:37:49.358Z,21.87
2023-05-21T07:40:19.043Z,21.28
2023-05-21T07:42:47.166Z,21.12
2023-05-21T07:45:15.246Z,21.07
2023-05-21T07:47:43.837Z,20.94
2023-05-21T07:50:13.263Z,20.99
2023-05-21T07:52:41.536Z,21.05
2023-05-21T07:55:10.661Z,20.57
2023-05-21T07:57:40.195Z,20.13
2023-05-21T08:00:10.442Z,19.88
2023-05-21T08:02:38.809Z,19.51
2023-05-21T08:05:07.792Z,19.63
2023-05-21T08:07:36.585Z,19.65
2023-05-21T08:10:05.183Z,19.65
2023-05-21T08:12:33.278Z,19.97
2023-05-21T08:15:02.949Z,20.07
2023-05-21T08:17:31.282Z,19.90
2023-05-21T08:19:59.759Z,19.42
2023-05-21T08:22:27.912Z,19.32
2023-05-21T08:24:56.541Z,19.21
2023-05-21T08:27:24.690Z,18.79
2023-05-21T08:29:53.039Z,18.11
2023-05-21T08:32:22.801Z,18.22
2023-05-21T08:34:51.216Z,17.60
2023-05-21T08:37:19.542Z,17.54
2023-05-21T08:39:47.722Z,16.82
2023-05-21T08:42:36.508Z,16.41
2023-05-21T08:45:07.571Z,16.10
2023-05-21T08:47:38.183Z,15.61
2023-05-21T08:50:10.447Z,15.65
2023-05-21T08:52:38.867Z,15.28
2023-05-21T08:55:08.252Z,14.46
2023-05-21T08:57:36.618Z,14.02
2023-05-21T09:02:40.998Z,14.46
2023-05-21T09:05:10.875Z,15.09
2023-05-21T09:07:45.348Z,16.67
2023-05-21T09:10:15.158Z,18.57
2023-05-21T09:12:43.343Z,19.35
2023-05-21T09:15:12.103Z,19.84
2023-05-21T09:17:41.609Z,20.33
2023-05-21T09:20:12.517Z,21.71
2023-05-21T09:22:44.471Z,22.36
2023-05-21T09:25:13.698Z,22.90
2023-05-21T09:27:41.878Z,23.57
2023-05-21T09:30:12.785Z,23.94
2023-05-21T09:32:42.996Z,23.75
2023-05-21T09:35:12.613Z,23.87
2023-05-21T09:37:44.040Z,23.79
2023-05-21T09:40:14.333Z,23.50
2023-05-21T09:42:43.098Z,23.70
2023-05-21T09:45:12.309Z,24.13
2023-05-21T09:47:46.806Z,24.51
2023-05-21T09:50:19.112Z,24.67
2023-05-21T09:52:47.735Z,24.34
2023-05-21T09:55:16.522Z,25.13
2023-05-21T09:57:45.405Z,24.37
2023-05-21T10:00:20.292Z,23.99
2023-05-21T10:02:51.192Z,24.15
2023-05-21T10:05:19.510Z,23.75
2023-05-21T10:07:51.876Z,23.04
2023-05-21T10:10:21.973Z,22.56
2023-05-21T10:13:00.175Z,22.74
2023-05-21T10:15:32.542Z,22.58
2023-05-21T10:18:04.843Z,23.19
2023-05-21T10:20:34.402Z,23.42
2023-05-21T10:23:03.674Z,22.70
2023-05-21T10:25:33.122Z,22.83
2023-05-21T10:28:01.388Z,23.47
2023-05-21T10:30:30.079Z,23.51
2023-05-21T10:32:59.781Z,23.85
2023-05-21T10:35:30.921Z,23.97
2023-05-21T10:38:00.340Z,23.32
2023-05-21T10:40:28.698Z,23.48
2023-05-21T10:43:35.945Z,23.79
2023-05-21T10:46:32.693Z,23.17
2023-05-21T10:49:15.461Z,23.38
2023-05-21T10:51:55.077Z,23.26
2023-05-21T10:54:52.913Z,23.13
2023-05-21T10:57:35.692Z,23.06
2023-05-21T11:00:05.177Z,23.03
2023-05-21T11:02:33.969Z,22.87
2023-05-21T11:05:04.259Z,23.61
2023-05-21T11:08:01.743Z,23.60
2023-05-21T11:10:34.067Z,23.39
2023-05-21T11:13:14.398Z,23.20
2023-05-21T11:16:08.159Z,23.09
2023-05-21T11:19:01.836Z,23.34
2023-05-21T11:21:36.440Z,22.96
2023-05-21T11:24:11.281Z,23.23
2023-05-21T11:27:04.484Z,23.39
2023-05-21T11:29:48.209Z,23.79
2023-05-21T11:32:17.636Z,23.98
2023-05-21T11:34:50.074Z,23.85
2023-05-21T11:37:36.126Z,24.11
2023-05-21T11:40:24.031Z,24.02
2023-05-21T11:42:53.967Z,24.01
2023-05-21T11:45:23.647Z,23.97
2023-05-21T11:47:52.917Z,23.94
2023-05-21T11:50:21.259Z,24.30
2023-05-21T11:52:51.111Z,24.22
2023-05-21T11:55:26.129Z,24.26
2023-05-21T11:57:56.896Z,24.63
2023-05-21T12:00:25.238Z,24.73
2023-05-21T12:02:56.346Z,24.68
2023-05-21T12:05:27.272Z,24.77
2023-05-21T12:07:56.677Z,24.41
2023-05-21T12:10:26.400Z,24.21
2023-05-21T12:12:57.288Z,24.30
2023-05-21T12:15:27.560Z,24.28
2023-05-21T12:17:57.085Z,24.14
2023-05-21T12:20:28.595Z,24.31
2023-05-21T12:22:59.283Z,24.36
2023-05-21T12:25:30.064Z,24.10
2023-05-21T12:27:59.064Z,24.28
2023-05-21T12:30:27.739Z,23.99
2023-05-21T12:32:59.710Z,24.12
2023-05-21T12:35:28.217Z,24.02
2023-05-21T12:37:56.762Z,24.05
2023-05-21T12:40:39.250Z,24.65
2023-05-21T12:43:08.516Z,25.03
2023-05-21T12:45:39.576Z,24.98
2023-05-21T12:48:08.338Z,25.44
2023-05-21T12:50:40.709Z,25.81
2023-05-21T12:53:11.100Z,25.93
2023-05-21T12:55:41.458Z,26.06
2023-05-21T12:58:09.629Z,25.50
2023-05-21T13:00:38.377Z,25.44
2023-05-21T13:03:07.486Z,25.63
2023-05-21T13:05:35.919Z,25.79
2023-05-21T13:08:04.210Z,25.99
2023-05-21T13:10:32.218Z,25.75
2023-05-21T13:13:02.121Z,25.38
2023-05-21T13:15:30.262Z,25.28
2023-05-21T13:18:01.215Z,25.62
2023-05-21T13:20:29.755Z,24.81
2023-05-21T13:22:58.024Z,25.19
2023-05-21T13:25:29.147Z,25.01
2023-05-21T13:27:58.349Z,24.34
2023-05-21T13:30:27.992Z,24.92
2023-05-21T13:32:56.307Z,24.75
2023-05-21T13:35:24.641Z,23.97
2023-05-21T13:37:52.710Z,23.70
2023-05-21T13:40:21.185Z,23.80
2023-05-21T13:42:50.497Z,23.97
2023-05-21T13:45:20.132Z,24.23
2023-05-21T13:47:49.765Z,24.32
2023-05-21T13:50:17.993Z,24.25
2023-05-21T13:52:46.537Z,24.46
2023-05-21T13:55:16.069Z,24.14
2023-05-21T13:57:44.716Z,24.04
2023-05-21T14:00:15.725Z,24.29
2023-05-21T14:02:44.667Z,24.70
2023-05-21T14:05:14.365Z,24.80
2023-05-21T14:07:43.004Z,24.38
2023-05-21T14:10:11.880Z,24.15
2023-05-21T14:12:40.976Z,24.24
2023-05-21T14:15:09.837Z,24.65
2023-05-21T14:17:40.339Z,25.31
2023-05-21T14:20:10.142Z,26.25
2023-05-21T14:22:39.766Z,27.21
2023-05-21T14:25:08.730Z,27.88
2023-05-21T14:27:38.579Z,28.83
2023-05-21T14:30:07.785Z,29.46
2023-05-21T14:32:35.995Z,29.52
2023-05-21T14:35:05.142Z,29.78
2023-05-21T14:37:33.409Z,30.47
2023-05-21T14:40:03.215Z,30.26
2023-05-21T14:42:32.108Z,30.42
2023-05-21T14:45:07.413Z,30.93
2023-05-21T14:47:46.143Z,30.35
2023-05-21T14:50:14.356Z,30.66
2023-05-21T14:52:43.254Z,30.80
2023-05-21T14:55:13.909Z,30.77
2023-05-21T14:57:41.988Z,30.66
2023-05-21T15:00:11.730Z,30.74
2023-05-21T15:02:40.599Z,30.93
2023-05-21T15:05:09.385Z,30.69
2023-05-21T15:07:37.597Z,31.20
2023-05-21T15:10:06.468Z,30.91
2023-05-21T15:12:35.956Z,30.15
2023-05-21T15:15:04.181Z,30.86
2023-05-21T15:17:33.388Z,30.36
2023-05-21T15:20:04.442Z,30.43
2023-05-21T15:22:32.691Z,31.87
2023-05-21T15:25:01.542Z,31.79
2023-05-21T15:27:29.728Z,32.21
2023-05-21T15:29:59.235Z,32.27
2023-05-21T15:32:27.356Z,32.76
2023-05-21T15:34:55.754Z,32.43
2023-05-21T15:37:23.935Z,32.89
2023-05-21T15:39:53.447Z,32.94
2023-05-21T15:42:21.587Z,32.89
2023-05-21T15:44:50.180Z,32.61
2023-05-21T15:47:19.747Z,33.02
2023-05-21T15:49:48.308Z,33.39
2023-05-21T15:52:17.148Z,32.95
2023-05-21T15:54:45.389Z,33.06
2023-05-21T15:57:13.602Z,32.86
2023-05-21T15:59:41.712Z,32.09
2023-05-21T16:02:10.136Z,32.05
2023-05-21T16:04:39.641Z,32.87
2023-05-21T16:07:07.777Z,32.69
2023-05-21T16:09:37.787Z,32.92
2023-05-21T16:12:06.523Z,32.54
2023-05-21T16:14:34.604Z,32.76
2023-05-21T16:17:02.751Z,32.12
2023-05-21T16:19:31.153Z,31.93
2023-05-21T16:22:01.806Z,32.34
2023-05-21T16:24:29.906Z,32.37
2023-05-21T16:26:58.009Z,32.21
2023-05-21T16:29:26.186Z,32.65
2023-05-21T16:31:54.327Z,32.61
2023-05-21T16:34:22.435Z,32.94
2023-05-21T16:36:51.767Z,32.55
2023-05-21T16:39:21.314Z,32.34
2023-05-21T16:41:49.464Z,32.21
2023-05-21T16:44:17.668Z,33.15
2023-05-21T16:46:45.853Z,32.81
2023-05-21T16:49:13.985Z,32.01
2023-05-21T16:51:42.157Z,32.14
2023-05-21T16:54:10.926Z,31.29
2023-05-21T16:56:40.371Z,30.30
2023-05-21T16:59:08.535Z,30.81
2023-05-21T17:01:36.766Z,30.96
2023-05-21T17:04:05.093Z,31.49
2023-05-21T17:06:33.991Z,32.12
2023-05-21T17:09:03.518Z,33.33
2023-05-21T17:11:32.344Z,33.61
2023-05-21T17:14:01.931Z,33.96
2023-05-21T17:16:30.309Z,33.76
2023-05-21T17:18:58.471Z,33.96
2023-05-21T17:21:27.442Z,33.71
2023-05-21T17:23:55.522Z,33.71
2023-05-21T17:26:23.692Z,33.14
2023-05-21T17:28:51.788Z,32.81
2023-05-21T17:31:21.998Z,32.30
2023-05-21T17:33:50.257Z,31.98
2023-05-21T17:36:18.477Z,31.53
2023-05-21T17:38:46.621Z,31.60
2023-05-21T17:41:16.506Z,31.65
2023-05-21T17:43:44.602Z,31.38
2023-05-21T17:46:16.734Z,31.44
2023-05-21T17:48:46.488Z,30.71
2023-05-21T17:51:14.835Z,30.35
2023-05-21T17:53:43.008Z,30.07
2023-05-21T17:56:11.552Z,30.84
2023-05-21T17:58:39.667Z,31.31
2023-05-21T18:01:07.957Z,31.71
2023-05-21T18:03:36.238Z,32.60
2023-05-21T18:06:08.203Z,33.06
2023-05-21T18:08:37.683Z,33.28
2023-05-21T18:11:06.032Z,33.01
2023-05-21T18:13:34.332Z,32.60
2023-05-21T18:16:02.511Z,32.36
2023-05-21T18:18:31.034Z,32.26
2023-05-21T18:20:59.444Z,32.45
2023-05-21T18:23:30.655Z,32.72
2023-05-21T18:25:58.884Z,33.26
2023-05-21T18:28:27.635Z,33.41
2023-05-21T18:30:55.874Z,33.53
2023-05-21T18:33:24.081Z,33.48
2023-05-21T18:35:52.272Z,33.66
2023-05-21T18:38:20.494Z,34.03
2023-05-21T18:40:51.085Z,33.76
2023-05-21T18:43:19.356Z,33.46
2023-05-21T18:45:48.184Z,32.94
2023-05-21T18:48:16.691Z,32.86
2023-05-21T18:50:44.963Z,32.40
2023-05-21T18:53:13.121Z,32.47
2023-05-21T18:55:41.329Z,32.78
2023-05-21T18:58:10.978Z,32.82
2023-05-21T19:00:39.792Z,32.54
2023-05-21T19:03:08.112Z,32.92
2023-05-21T19:05:36.373Z,32.85
2023-05-21T19:08:04.913Z,33.32
2023-05-21T19:10:33.149Z,33.48
2023-05-21T19:13:01.333Z,33.74
2023-05-21T19:15:30.927Z,33.69
2023-05-21T19:18:00.870Z,33.57
2023-05-21T19:20:29.279Z,34.58
2023-05-21T19:22:57.493Z,36.81
2023-05-21T19:25:25.727Z,38.36
2023-05-21T19:27:53.998Z,39.54
2023-05-21T19:30:22.225Z,40.21
2023-05-21T19:32:51.878Z,40.70
2023-05-21T19:35:20.170Z,41.19
2023-05-21T19:37:48.377Z,41.21
2023-05-21T19:40:17.959Z,41.89
2023-05-21T19:42:46.257Z,42.31
2023-05-21T19:45:15.697Z,42.55
2023-05-21T19:47:45.021Z,42.81
2023-05-21T19:50:14.817Z,42.64
2023-05-21T19:52:43.119Z,43.33
2023-05-21T19:55:11.570Z,43.03
2023-05-21T19:57:39.836Z,43.56
2023-05-21T20:00:10.412Z,44.29
2023-05-21T20:02:38.731Z,44.41
2023-05-21T20:05:07.915Z,44.77
2023-05-21T20:07:37.560Z,45.44
2023-05-21T20:10:06.400Z,45.94
2023-05-21T20:12:34.618Z,46.16
2023-05-21T20:15:02.787Z,46.29
2023-05-21T20:17:34.191Z,46.34
2023-05-21T20:20:10.446Z,46.49
2023-05-21T20:22:40.187Z,46.34
2023-05-21T20:25:10.400Z,46.24
2023-05-21T20:27:39.863Z,46.60
2023-05-21T20:30:09.511Z,46.81
2023-05-21T20:32:38.457Z,46.63
2023-05-21T20:35:10.166Z,46.44
2023-05-21T20:37:39.808Z,46.57
2023-05-21T20:40:10.317Z,46.76
2023-05-21T20:42:40.305Z,46.91
2023-05-21T20:45:09.427Z,46.74
2023-05-21T20:47:38.613Z,47.12
2023-05-21T20:50:07.615Z,46.99
2023-05-21T20:52:36.347Z,47.35
2023-05-21T20:55:06.627Z,47.61
2023-05-21T20:57:34.807Z,47.71
2023-05-21T21:00:04.854Z,47.65
2023-05-21T21:02:33.914Z,48.02
2023-05-21T21:05:04.092Z,47.69
2023-05-21T21:07:34.387Z,47.99
2023-05-21T21:10:02.765Z,48.63
2023-05-21T21:12:32.411Z,48.70
2023-05-21T21:15:00.721Z,48.77
2023-05-21T21:17:29.068Z,48.55
2023-05-21T21:19:57.334Z,48.54
2023-05-21T21:22:25.637Z,48.43
2023-05-21T21:24:53.899Z,48.66
2023-05-21T21:27:22.052Z,48.79
2023-05-21T21:29:51.597Z,49.24
2023-05-21T21:32:19.883Z,48.90
2023-05-21T21:34:48.052Z,49.03
2023-05-21T21:37:16.474Z,49.17
2023-05-21T21:39:44.615Z,49.09
2023-05-21T21:42:12.895Z,49.16
2023-05-21T21:44:41.180Z,49.15
2023-05-21T21:47:10.844Z,48.86
2023-05-21T21:49:39.003Z,48.95
2023-05-21T21:52:08.383Z,48.59
2023-05-21T21:54:36.535Z,48.17
2023-05-21T21:57:04.904Z,47.95
2023-05-21T21:59:33.126Z,47.86
2023-05-21T22:02:01.542Z,47.81
2023-05-21T22:04:31.097Z,47.43
2023-05-21T22:06:59.288Z,47.22
2023-05-21T22:09:27.507Z,47.12
2023-05-21T22:11:55.696Z,47.22
2023-05-21T22:14:23.926Z,47.11
2023-05-21T22:16:53.274Z,47.75
2023-05-21T22:19:22.254Z,48.78
2023-05-21T22:21:51.922Z,49.12
2023-05-21T22:24:31.542Z,49.40
2023-05-21T22:27:01.272Z,48.68
2023-05-21T22:29:29.398Z,48.96
2023-05-21T22:31:57.651Z,48.84
2023-05-21T22:34:25.779Z,48.54
2023-05-21T22:36:55.373Z,48.54
2023-05-21T22:39:23.610Z,48.54
2023-05-21T22:41:52.049Z,48.56
2023-05-21T22:44:20.449Z,48.34
2023-05-21T22:46:49.480Z,48.08
2023-05-21T22:49:17.744Z,48.23
2023-05-21T22:51:46.443Z,48.69
2023-05-21T22:54:16.013Z,48.38
2023-05-21T22:56:44.479Z,48.38
2023-05-21T22:59:12.627Z,48.16
2023-05-21T23:01:40.827Z,48.29
2023-05-21T23:04:08.986Z,48.09
2023-05-21T23:06:37.143Z,47.97
2023-05-21T23:09:05.429Z,47.74
2023-05-21T23:11:35.180Z,48.22
2023-05-21T23:14:03.484Z,48.19
2023-05-21T23:16:32.424Z,47.96
2023-05-21T23:19:01.332Z,48.38
2023-05-21T23:21:29.657Z,48.43
2023-05-21T23:23:57.828Z,48.82
2023-05-21T23:26:26.865Z,48.15
2023-05-21T23:28:56.436Z,48.12
2023-05-21T23:31:24.720Z,48.55
2023-05-21T23:33:53.340Z,48.22
2023-05-21T23:36:21.612Z,48.75
2023-05-21T23:38:49.726Z,48.83
2023-05-21T23:41:17.856Z,49.27
2023-05-21T23:43:46.021Z,49.28
2023-05-21T23:46:15.712Z,49.04
2023-05-21T23:48:43.915Z,49.15
2023-05-21T23:51:12.166Z,48.99
2023-05-21T23:53:40.342Z,49.17
2023-05-21T23:56:08.728Z,49.58
2023-05-21T23:58:36.828Z,48.99
